THY6430 LTFM-LJLJ
Flight info
| Callsign | THY6430 |
|---|---|
| Flight time | N/A |
| Altitude | 34000 |
| Route | VADEN Y520 OSTEX DCT BAKLO DCT XANEX DCT UTEKA DCT SMI DCT VASLE VASLE1R |
| Aircraft | B77L/H-SDE1E2E3FGHIJ2J3J4J5M1RWXY/LB1D1 |
Departure
| Time | 2026-05-04 09:01 |
|---|---|
| Airport | İstanbul Airport (LTFM) |
Arrival
| Time | N/A |
|---|---|
| Airport | Ljubljana Jože Pučnik Airport (LJLJ) |
| Time | Latitude | Longitude | Altitude | Speed | Heading |
|---|---|---|---|---|---|
| 2026-05-04 08:35 | 41.27715 | 28.72076 | 338 ft | 0 kts | 269° |
| 2026-05-04 08:47 | 41.27715 | 28.72077 | 311 ft | 1 kts | 269° |
| 2026-05-04 08:48 | 41.27716 | 28.72095 | 333 ft | 3 kts | 269° |
| 2026-05-04 08:48 | 41.27716 | 28.72122 | 335 ft | 3 kts | 269° |
| 2026-05-04 08:48 | 41.27716 | 28.72149 | 333 ft | 3 kts | 269° |
| 2026-05-04 08:48 | 41.27717 | 28.72176 | 333 ft | 3 kts | 269° |
| 2026-05-04 08:49 | 41.27717 | 28.72203 | 333 ft | 3 kts | 269° |
| 2026-05-04 08:50 | 41.27763 | 28.72263 | 333 ft | 0 kts | 179° |
| 2026-05-04 08:52 | 41.27751 | 28.72263 | 333 ft | 6 kts | 179° |
| 2026-05-04 08:52 | 41.27674 | 28.72265 | 334 ft | 13 kts | 179° |
| 2026-05-04 08:53 | 41.27581 | 28.72267 | 335 ft | 13 kts | 179° |
| 2026-05-04 08:54 | 41.26934 | 28.72282 | 334 ft | 13 kts | 179° |
| 2026-05-04 08:55 | 41.26841 | 28.72284 | 335 ft | 13 kts | 179° |
| 2026-05-04 08:55 | 41.26749 | 28.72286 | 337 ft | 13 kts | 179° |
| 2026-05-04 08:55 | 41.26656 | 28.72288 | 336 ft | 13 kts | 179° |
| 2026-05-04 08:55 | 41.26573 | 28.72290 | 338 ft | 7 kts | 179° |
| 2026-05-04 08:57 | 41.27044 | 28.72507 | 335 ft | 84 kts | 359° |
| 2026-05-04 09:01 | 41.41958 | 28.59296 | 8521 ft | 267 kts | 304° |
| 2026-05-04 09:01 | 41.42885 | 28.57120 | 9291 ft | 272 kts | 305° |
| 2026-05-04 09:01 | 41.43824 | 28.54913 | 10028 ft | 277 kts | 305° |
| 2026-05-04 09:01 | 41.44797 | 28.52630 | 10520 ft | 292 kts | 305° |
| 2026-05-04 09:02 | 41.45848 | 28.50176 | 10723 ft | 318 kts | 305° |
| 2026-05-04 09:02 | 41.46989 | 28.47510 | 10908 ft | 344 kts | 304° |
| 2026-05-04 09:02 | 41.48199 | 28.44666 | 11431 ft | 358 kts | 304° |
| 2026-05-04 09:02 | 41.49422 | 28.41777 | 12230 ft | 366 kts | 304° |
| 2026-05-04 09:03 | 41.50674 | 28.38808 | 13194 ft | 370 kts | 304° |
| 2026-05-04 09:03 | 41.51944 | 28.35794 | 14135 ft | 374 kts | 304° |
| 2026-05-04 09:03 | 41.53234 | 28.32735 | 14872 ft | 382 kts | 304° |
| 2026-05-04 09:03 | 41.54551 | 28.29616 | 15576 ft | 390 kts | 304° |
| 2026-05-04 09:04 | 41.55896 | 28.26430 | 16319 ft | 397 kts | 304° |
| 2026-05-04 09:04 | 41.57257 | 28.23200 | 17067 ft | 403 kts | 304° |
| 2026-05-04 09:04 | 41.58645 | 28.19903 | 17844 ft | 409 kts | 304° |
| 2026-05-04 09:04 | 41.60045 | 28.16572 | 18586 ft | 414 kts | 304° |
| 2026-05-04 09:05 | 41.61460 | 28.13203 | 19293 ft | 417 kts | 303° |
| 2026-05-04 09:05 | 41.62884 | 28.09806 | 20003 ft | 421 kts | 303° |
| 2026-05-04 09:05 | 41.64325 | 28.06372 | 20690 ft | 425 kts | 303° |
| 2026-05-04 09:05 | 41.65778 | 28.02901 | 21324 ft | 431 kts | 303° |
| 2026-05-04 09:06 | 41.67249 | 27.99383 | 21959 ft | 436 kts | 303° |
| 2026-05-04 09:07 | 41.77990 | 27.73579 | 25710 ft | 472 kts | 302° |
| 2026-05-04 09:08 | 41.79592 | 27.69709 | 26205 ft | 476 kts | 302° |
| 2026-05-04 09:08 | 41.81205 | 27.65809 | 26658 ft | 482 kts | 302° |
| 2026-05-04 09:08 | 41.82835 | 27.61864 | 27100 ft | 486 kts | 302° |
| 2026-05-04 09:08 | 41.84482 | 27.57874 | 27550 ft | 491 kts | 302° |
| 2026-05-04 09:09 | 41.86144 | 27.53840 | 28006 ft | 495 kts | 302° |
| 2026-05-04 09:09 | 41.87815 | 27.49775 | 28426 ft | 500 kts | 302° |
| 2026-05-04 09:09 | 41.89501 | 27.45668 | 28847 ft | 504 kts | 302° |
| 2026-05-04 09:09 | 41.91198 | 27.41529 | 29275 ft | 508 kts | 302° |
| 2026-05-04 09:10 | 41.92906 | 27.37359 | 29666 ft | 512 kts | 302° |
| 2026-05-04 09:10 | 41.94624 | 27.33160 | 30100 ft | 514 kts | 302° |
| 2026-05-04 09:10 | 41.96338 | 27.28961 | 30573 ft | 514 kts | 301° |
| 2026-05-04 09:10 | 41.98056 | 27.24745 | 31101 ft | 512 kts | 301° |
| 2026-05-04 09:11 | 41.99762 | 27.20555 | 31619 ft | 510 kts | 301° |
| 2026-05-04 09:11 | 42.01460 | 27.16377 | 32128 ft | 509 kts | 301° |
| 2026-05-04 09:11 | 42.03153 | 27.12210 | 32587 ft | 508 kts | 300° |
| 2026-05-04 09:11 | 42.04847 | 27.08034 | 33051 ft | 508 kts | 300° |
| 2026-05-04 09:12 | 42.06536 | 27.03864 | 33524 ft | 507 kts | 300° |
| 2026-05-04 09:12 | 42.08218 | 26.99704 | 33978 ft | 506 kts | 300° |
| 2026-05-04 09:14 | 42.19962 | 26.70502 | 34077 ft | 505 kts | 299° |
| 2026-05-04 09:14 | 42.23300 | 26.62150 | 34084 ft | 506 kts | 299° |
| 2026-05-04 09:15 | 42.26611 | 26.53838 | 34088 ft | 506 kts | 299° |
| 2026-05-04 09:15 | 42.29941 | 26.45456 | 34085 ft | 507 kts | 299° |
| 2026-05-04 09:17 | 42.44850 | 26.07627 | 34095 ft | 505 kts | 298° |
| 2026-05-04 09:18 | 42.48137 | 25.99220 | 34097 ft | 504 kts | 298° |
| 2026-05-04 09:18 | 42.51408 | 25.90827 | 34095 ft | 503 kts | 298° |
| 2026-05-04 09:19 | 42.54669 | 25.82435 | 34093 ft | 503 kts | 298° |
| 2026-05-04 09:19 | 42.57924 | 25.74042 | 34099 ft | 502 kts | 298° |
| 2026-05-04 09:20 | 42.61165 | 25.65654 | 34096 ft | 502 kts | 298° |
| 2026-05-04 09:20 | 42.64399 | 25.57260 | 34102 ft | 502 kts | 297° |
| 2026-05-04 09:21 | 42.67624 | 25.48866 | 34097 ft | 502 kts | 297° |
| 2026-05-04 09:21 | 42.70828 | 25.40500 | 34101 ft | 501 kts | 297° |
| 2026-05-04 09:22 | 42.74045 | 25.32076 | 34098 ft | 502 kts | 297° |
| 2026-05-04 09:22 | 42.77254 | 25.23645 | 34103 ft | 502 kts | 298° |
| 2026-05-04 09:23 | 42.80462 | 25.15196 | 34105 ft | 502 kts | 298° |
| 2026-05-04 09:23 | 42.83666 | 25.06733 | 34122 ft | 502 kts | 298° |
| 2026-05-04 09:25 | 42.96353 | 24.72964 | 34124 ft | 497 kts | 297° |
| 2026-05-04 09:26 | 42.98958 | 24.65978 | 34137 ft | 496 kts | 297° |
| 2026-05-04 09:26 | 43.02084 | 24.57573 | 34132 ft | 496 kts | 298° |
| 2026-05-04 09:27 | 43.05703 | 24.47817 | 34146 ft | 494 kts | 298° |
| 2026-05-04 09:27 | 43.08302 | 24.40785 | 34146 ft | 494 kts | 298° |
| 2026-05-04 09:28 | 43.11373 | 24.32458 | 34145 ft | 493 kts | 298° |
| 2026-05-04 09:28 | 43.14455 | 24.24073 | 34155 ft | 492 kts | 298° |
| 2026-05-04 09:29 | 43.17527 | 24.15691 | 34148 ft | 491 kts | 298° |
| 2026-05-04 09:29 | 43.20584 | 24.07320 | 34150 ft | 490 kts | 298° |
| 2026-05-04 09:30 | 43.23631 | 23.98956 | 34153 ft | 490 kts | 299° |
| 2026-05-04 09:30 | 43.26669 | 23.90594 | 34157 ft | 489 kts | 299° |
| 2026-05-04 09:31 | 43.29694 | 23.82238 | 34154 ft | 488 kts | 299° |
| 2026-05-04 09:31 | 43.32710 | 23.73881 | 34150 ft | 488 kts | 299° |
| 2026-05-04 09:32 | 43.35715 | 23.65534 | 34158 ft | 487 kts | 300° |
| 2026-05-04 09:34 | 43.47632 | 23.32175 | 34148 ft | 486 kts | 300° |
| 2026-05-04 09:34 | 43.50593 | 23.23822 | 34158 ft | 485 kts | 300° |
| 2026-05-04 09:35 | 43.53543 | 23.15478 | 34151 ft | 485 kts | 300° |
| 2026-05-04 09:35 | 43.56489 | 23.07118 | 34145 ft | 484 kts | 300° |
| 2026-05-04 09:37 | 43.68095 | 22.73927 | 34154 ft | 476 kts | 300° |
| 2026-05-04 09:38 | 43.70959 | 22.65681 | 34160 ft | 475 kts | 300° |
| 2026-05-04 09:38 | 43.73802 | 22.57466 | 34155 ft | 473 kts | 300° |
| 2026-05-04 09:39 | 43.76628 | 22.49273 | 34165 ft | 471 kts | 300° |
| 2026-05-04 09:39 | 43.79440 | 22.41098 | 34161 ft | 470 kts | 300° |
| 2026-05-04 09:40 | 43.82240 | 22.32932 | 34166 ft | 469 kts | 300° |
| 2026-05-04 09:40 | 43.85013 | 22.24825 | 34167 ft | 468 kts | 300° |
| 2026-05-04 09:42 | 43.96091 | 21.92175 | 34163 ft | 467 kts | 300° |
| 2026-05-04 09:43 | 43.98848 | 21.83992 | 34185 ft | 468 kts | 299° |
| 2026-05-04 09:43 | 44.01603 | 21.75787 | 34192 ft | 469 kts | 299° |
| 2026-05-04 09:44 | 44.04351 | 21.67572 | 34189 ft | 468 kts | 299° |
| 2026-05-04 09:46 | 44.15279 | 21.34672 | 34187 ft | 468 kts | 299° |
| 2026-05-04 09:46 | 44.18011 | 21.26440 | 34192 ft | 467 kts | 299° |
| 2026-05-04 09:47 | 44.20755 | 21.18237 | 34189 ft | 467 kts | 299° |
| 2026-05-04 09:49 | 44.31614 | 20.85450 | 34184 ft | 465 kts | 299° |
| 2026-05-04 09:51 | 44.41015 | 20.56711 | 34189 ft | 464 kts | 298° |
| 2026-05-04 09:51 | 44.43611 | 20.48718 | 34180 ft | 464 kts | 298° |
| 2026-05-04 09:52 | 44.46277 | 20.40483 | 34179 ft | 464 kts | 298° |
| 2026-05-04 09:52 | 44.48933 | 20.32257 | 34176 ft | 463 kts | 298° |
| 2026-05-04 09:53 | 44.51565 | 20.24080 | 34174 ft | 463 kts | 298° |
| 2026-05-04 09:53 | 44.54199 | 20.15867 | 34178 ft | 462 kts | 298° |
| 2026-05-04 09:54 | 44.56831 | 20.07639 | 34176 ft | 461 kts | 297° |
| 2026-05-04 09:54 | 44.59451 | 19.99421 | 34175 ft | 461 kts | 297° |
| 2026-05-04 09:55 | 44.62057 | 19.91220 | 34168 ft | 460 kts | 297° |
| 2026-05-04 09:55 | 44.64660 | 19.83001 | 34171 ft | 460 kts | 297° |
| 2026-05-04 09:56 | 44.67250 | 19.74800 | 34165 ft | 459 kts | 297° |
| 2026-05-04 09:56 | 44.69814 | 19.66656 | 34165 ft | 458 kts | 297° |
| 2026-05-04 09:57 | 44.72406 | 19.58395 | 34162 ft | 458 kts | 297° |
| 2026-05-04 09:57 | 44.74953 | 19.50253 | 34158 ft | 458 kts | 297° |
| 2026-05-04 09:58 | 44.77525 | 19.42005 | 34169 ft | 458 kts | 297° |
| 2026-05-04 09:58 | 44.80076 | 19.33797 | 34171 ft | 458 kts | 297° |
| 2026-05-04 10:00 | 44.90217 | 19.00911 | 34152 ft | 458 kts | 296° |
| 2026-05-04 10:04 | 45.07716 | 18.43142 | 34155 ft | 457 kts | 295° |
| 2026-05-04 10:04 | 45.10195 | 18.34851 | 34152 ft | 458 kts | 295° |
| 2026-05-04 10:05 | 45.12667 | 18.26553 | 34148 ft | 458 kts | 295° |
| 2026-05-04 10:05 | 45.15142 | 18.18220 | 34149 ft | 458 kts | 295° |
| 2026-05-04 10:06 | 45.17593 | 18.09945 | 34149 ft | 459 kts | 295° |
| 2026-05-04 10:06 | 45.20057 | 18.01592 | 34144 ft | 459 kts | 295° |
| 2026-05-04 10:08 | 45.28630 | 17.72317 | 34145 ft | 460 kts | 294° |
| 2026-05-04 10:08 | 45.31073 | 17.63913 | 34140 ft | 460 kts | 294° |
| 2026-05-04 10:09 | 45.33505 | 17.55515 | 34147 ft | 460 kts | 294° |
| 2026-05-04 10:09 | 45.35940 | 17.47085 | 34137 ft | 461 kts | 294° |
| 2026-05-04 10:10 | 45.38367 | 17.38642 | 34142 ft | 461 kts | 294° |
| 2026-05-04 10:10 | 45.40784 | 17.30213 | 34143 ft | 461 kts | 294° |
| 2026-05-04 10:11 | 45.43199 | 17.21764 | 34143 ft | 460 kts | 294° |
| 2026-05-04 10:11 | 45.45590 | 17.13365 | 34133 ft | 461 kts | 294° |
| 2026-05-04 10:12 | 45.47993 | 17.04898 | 34127 ft | 460 kts | 293° |
| 2026-05-04 10:12 | 45.50356 | 16.96538 | 33394 ft | 455 kts | 293° |
| 2026-05-04 10:13 | 45.51537 | 16.92352 | 32669 ft | 453 kts | 293° |
| 2026-05-04 10:13 | 45.52707 | 16.88194 | 32078 ft | 450 kts | 293° |
| 2026-05-04 10:13 | 45.53868 | 16.84065 | 31501 ft | 447 kts | 293° |
| 2026-05-04 10:13 | 45.55016 | 16.79968 | 30933 ft | 444 kts | 293° |
| 2026-05-04 10:14 | 45.55777 | 16.77251 | 30567 ft | 442 kts | 293° |
| 2026-05-04 10:14 | 45.56913 | 16.73195 | 30001 ft | 440 kts | 293° |
| 2026-05-04 10:16 | 45.64640 | 16.45409 | 25996 ft | 420 kts | 292° |
| 2026-05-04 10:16 | 45.65709 | 16.41538 | 25475 ft | 418 kts | 292° |
| 2026-05-04 10:16 | 45.66771 | 16.37685 | 24963 ft | 416 kts | 292° |
| 2026-05-04 10:16 | 45.67827 | 16.33850 | 24445 ft | 414 kts | 292° |
| 2026-05-04 10:17 | 45.68880 | 16.30021 | 23924 ft | 413 kts | 292° |
| 2026-05-04 10:17 | 45.69929 | 16.26200 | 23332 ft | 412 kts | 292° |
| 2026-05-04 10:19 | 45.77059 | 16.00054 | 19798 ft | 396 kts | 291° |
| 2026-05-04 10:19 | 45.78057 | 15.96372 | 19311 ft | 394 kts | 291° |
| 2026-05-04 10:19 | 45.79046 | 15.92721 | 18834 ft | 393 kts | 291° |
| 2026-05-04 10:19 | 45.80033 | 15.89070 | 18333 ft | 393 kts | 291° |
| 2026-05-04 10:20 | 45.81017 | 15.85420 | 17781 ft | 392 kts | 291° |
| 2026-05-04 10:20 | 45.81999 | 15.81772 | 17267 ft | 391 kts | 291° |
| 2026-05-04 10:20 | 45.82977 | 15.78139 | 16769 ft | 390 kts | 291° |
| 2026-05-04 10:20 | 45.83950 | 15.74520 | 16292 ft | 388 kts | 291° |
| 2026-05-04 10:21 | 45.84917 | 15.70918 | 15788 ft | 387 kts | 291° |
| 2026-05-04 10:21 | 45.85880 | 15.67320 | 15313 ft | 386 kts | 290° |
| 2026-05-04 10:21 | 45.86841 | 15.63729 | 14824 ft | 385 kts | 290° |
| 2026-05-04 10:21 | 45.87796 | 15.60146 | 14342 ft | 384 kts | 290° |
| 2026-05-04 10:22 | 45.89700 | 15.52989 | 13323 ft | 383 kts | 290° |
| 2026-05-04 10:22 | 45.90650 | 15.49415 | 12819 ft | 382 kts | 290° |
| 2026-05-04 10:22 | 45.91597 | 15.45849 | 12311 ft | 381 kts | 290° |
| 2026-05-04 10:23 | 45.92535 | 15.42308 | 11837 ft | 379 kts | 290° |
| 2026-05-04 10:23 | 45.93469 | 15.38781 | 11364 ft | 377 kts | 290° |
| 2026-05-04 10:25 | 45.99045 | 15.17599 | 10181 ft | 281 kts | 289° |
| 2026-05-04 10:25 | 45.99734 | 15.14964 | 10041 ft | 282 kts | 289° |
| 2026-05-04 10:25 | 46.00421 | 15.12334 | 9700 ft | 277 kts | 289° |
| 2026-05-04 10:25 | 46.01089 | 15.09782 | 9277 ft | 267 kts | 289° |
| 2026-05-04 10:26 | 46.01730 | 15.07346 | 8961 ft | 261 kts | 288° |
| 2026-05-04 10:26 | 46.02367 | 15.04893 | 8636 ft | 263 kts | 289° |
| 2026-05-04 10:26 | 46.03005 | 15.02427 | 8352 ft | 264 kts | 289° |
| 2026-05-04 10:26 | 46.03646 | 14.99969 | 8018 ft | 258 kts | 289° |
| 2026-05-04 10:27 | 46.04258 | 14.97599 | 7721 ft | 249 kts | 289° |
| 2026-05-04 10:27 | 46.04857 | 14.95305 | 7531 ft | 241 kts | 289° |
| 2026-05-04 10:27 | 46.05447 | 14.93063 | 7197 ft | 236 kts | 289° |
| 2026-05-04 10:27 | 46.05998 | 14.90896 | 6948 ft | 226 kts | 288° |
| 2026-05-04 10:28 | 46.06542 | 14.88807 | 6676 ft | 225 kts | 289° |
| 2026-05-04 10:28 | 46.07076 | 14.86726 | 6428 ft | 219 kts | 288° |